sensor_id;sensor_type;location;lat;lon;timestamp;P1;durP1;ratioP1;P2;durP2;ratioP2
36797;SDS011;22748;8.426;99.512;2022-12-18T00:00:51;15.57;;;11.30;;
36797;SDS011;22748;8.426;99.512;2022-12-18T00:03:21;16.27;;;8.50;;
36797;SDS011;22748;8.426;99.512;2022-12-18T00:05:51;20.25;;;15.88;;
36797;SDS011;22748;8.426;99.512;2022-12-18T00:08:22;9.68;;;7.90;;
36797;SDS011;22748;8.426;99.512;2022-12-18T00:10:52;8.77;;;5.43;;
36797;SDS011;22748;8.426;99.512;2022-12-18T00:13:23;9.77;;;6.45;;
36797;SDS011;22748;8.426;99.512;2022-12-18T00:18:21;11.15;;;6.45;;
36797;SDS011;22748;8.426;99.512;2022-12-18T00:20:51;9.25;;;6.40;;
36797;SDS011;22748;8.426;99.512;2022-12-18T00:23:20;15.15;;;13.57;;
36797;SDS011;22748;8.426;99.512;2022-12-18T00:25:50;11.10;;;6.40;;
36797;SDS011;22748;8.426;99.512;2022-12-18T00:28:25;9.60;;;8.05;;
36797;SDS011;22748;8.426;99.512;2022-12-18T00:30:59;29.42;;;25.67;;
36797;SDS011;22748;8.426;99.512;2022-12-18T00:33:30;36.92;;;32.97;;
36797;SDS011;22748;8.426;99.512;2022-12-18T00:36:02;23.83;;;18.43;;
36797;SDS011;22748;8.426;99.512;2022-12-18T00:38:34;17.10;;;11.75;;
36797;SDS011;22748;8.426;99.512;2022-12-18T00:41:05;11.32;;;8.05;;
36797;SDS011;22748;8.426;99.512;2022-12-18T00:43:38;9.65;;;7.30;;
36797;SDS011;22748;8.426;99.512;2022-12-18T00:46:08;6.82;;;5.32;;
36797;SDS011;22748;8.426;99.512;2022-12-18T00:48:40;5.47;;;4.93;;
36797;SDS011;22748;8.426;99.512;2022-12-18T00:51:11;5.68;;;4.70;;
36797;SDS011;22748;8.426;99.512;2022-12-18T00:53:41;12.10;;;5.93;;
36797;SDS011;22748;8.426;99.512;2022-12-18T00:56:11;19.63;;;17.15;;
36797;SDS011;22748;8.426;99.512;2022-12-18T00:58:42;58.92;;;48.08;;
36797;SDS011;22748;8.426;99.512;2022-12-18T01:01:13;32.28;;;22.67;;
36797;SDS011;22748;8.426;99.512;2022-12-18T01:03:44;15.52;;;13.52;;
36797;SDS011;22748;8.426;99.512;2022-12-18T01:08:43;24.50;;;16.63;;
36797;SDS011;22748;8.426;99.512;2022-12-18T01:11:14;16.63;;;13.00;;
36797;SDS011;22748;8.426;99.512;2022-12-18T01:13:47;10.60;;;8.52;;
36797;SDS011;22748;8.426;99.512;2022-12-18T01:16:18;13.93;;;9.88;;
36797;SDS011;22748;8.426;99.512;2022-12-18T01:18:51;14.02;;;9.80;;
36797;SDS011;22748;8.426;99.512;2022-12-18T01:21:22;9.50;;;6.05;;
36797;SDS011;22748;8.426;99.512;2022-12-18T01:23:54;8.95;;;7.93;;
36797;SDS011;22748;8.426;99.512;2022-12-18T01:26:26;16.38;;;14.18;;
36797;SDS011;22748;8.426;99.512;2022-12-18T01:28:59;8.02;;;6.22;;
36797;SDS011;22748;8.426;99.512;2022-12-18T01:31:30;15.52;;;13.93;;
36797;SDS011;22748;8.426;99.512;2022-12-18T01:34:01;19.40;;;13.68;;
36797;SDS011;22748;8.426;99.512;2022-12-18T01:36:35;23.48;;;20.98;;
36797;SDS011;22748;8.426;99.512;2022-12-18T01:39:10;18.15;;;14.68;;
36797;SDS011;22748;8.426;99.512;2022-12-18T01:41:41;7.75;;;6.95;;
36797;SDS011;22748;8.426;99.512;2022-12-18T01:47:23;9.60;;;6.25;;
36797;SDS011;22748;8.426;99.512;2022-12-18T01:49:57;6.93;;;6.22;;
36797;SDS011;22748;8.426;99.512;2022-12-18T01:52:29;6.90;;;5.65;;
36797;SDS011;22748;8.426;99.512;2022-12-18T01:55:02;9.55;;;7.80;;
36797;SDS011;22748;8.426;99.512;2022-12-18T01:57:33;7.07;;;5.80;;
36797;SDS011;22748;8.426;99.512;2022-12-18T02:00:07;10.00;;;5.90;;
36797;SDS011;22748;8.426;99.512;2022-12-18T02:02:39;7.60;;;4.97;;
36797;SDS011;22748;8.426;99.512;2022-12-18T02:05:09;6.30;;;4.53;;
36797;SDS011;22748;8.426;99.512;2022-12-18T02:07:42;5.50;;;4.00;;
36797;SDS011;22748;8.426;99.512;2022-12-18T02:10:19;6.20;;;3.90;;
36797;SDS011;22748;8.426;99.512;2022-12-18T02:12:56;4.47;;;3.20;;
36797;SDS011;22748;8.426;99.512;2022-12-18T02:15:43;7.45;;;3.33;;
36797;SDS011;22748;8.426;99.512;2022-12-18T02:18:18;5.53;;;3.00;;
36797;SDS011;22748;8.426;99.512;2022-12-18T02:20:53;6.40;;;3.58;;
36797;SDS011;22748;8.426;99.512;2022-12-18T02:23:38;6.00;;;3.38;;
36797;SDS011;22748;8.426;99.512;2022-12-18T02:26:23;5.63;;;3.30;;
36797;SDS011;22748;8.426;99.512;2022-12-18T02:28:58;5.40;;;4.20;;
36797;SDS011;22748;8.426;99.512;2022-12-18T02:31:34;5.57;;;3.65;;
36797;SDS011;22748;8.426;99.512;2022-12-18T02:34:09;5.75;;;3.65;;
36797;SDS011;22748;8.426;99.512;2022-12-18T02:36:43;7.03;;;3.60;;
36797;SDS011;22748;8.426;99.512;2022-12-18T02:39:16;4.57;;;2.90;;
36797;SDS011;22748;8.426;99.512;2022-12-18T02:41:49;6.63;;;3.22;;
36797;SDS011;22748;8.426;99.512;2022-12-18T02:44:20;4.43;;;2.90;;
36797;SDS011;22748;8.426;99.512;2022-12-18T02:46:53;5.30;;;3.20;;
36797;SDS011;22748;8.426;99.512;2022-12-18T02:49:26;6.60;;;3.63;;
36797;SDS011;22748;8.426;99.512;2022-12-18T02:52:10;6.22;;;3.50;;
36797;SDS011;22748;8.426;99.512;2022-12-18T02:54:54;5.15;;;3.60;;
36797;SDS011;22748;8.426;99.512;2022-12-18T02:57:33;9.88;;;4.88;;
36797;SDS011;22748;8.426;99.512;2022-12-18T03:00:11;8.35;;;6.25;;
36797;SDS011;22748;8.426;99.512;2022-12-18T03:02:45;11.02;;;7.50;;
36797;SDS011;22748;8.426;99.512;2022-12-18T03:05:21;11.60;;;7.18;;
36797;SDS011;22748;8.426;99.512;2022-12-18T03:07:58;8.98;;;5.90;;
36797;SDS011;22748;8.426;99.512;2022-12-18T03:10:32;6.78;;;4.38;;
36797;SDS011;22748;8.426;99.512;2022-12-18T03:13:11;7.53;;;3.85;;
36797;SDS011;22748;8.426;99.512;2022-12-18T03:15:47;5.00;;;3.40;;
36797;SDS011;22748;8.426;99.512;2022-12-18T03:18:30;6.00;;;3.38;;
36797;SDS011;22748;8.426;99.512;2022-12-18T03:21:04;5.80;;;3.35;;
36797;SDS011;22748;8.426;99.512;2022-12-18T03:23:39;5.47;;;3.00;;
36797;SDS011;22748;8.426;99.512;2022-12-18T03:26:13;3.80;;;2.50;;
36797;SDS011;22748;8.426;99.512;2022-12-18T03:28:49;5.63;;;3.40;;
36797;SDS011;22748;8.426;99.512;2022-12-18T03:31:22;7.20;;;3.05;;
36797;SDS011;22748;8.426;99.512;2022-12-18T03:33:55;8.00;;;3.53;;
36797;SDS011;22748;8.426;99.512;2022-12-18T03:36:32;6.20;;;3.30;;
36797;SDS011;22748;8.426;99.512;2022-12-18T03:39:02;5.32;;;2.95;;
36797;SDS011;22748;8.426;99.512;2022-12-18T03:41:35;11.80;;;6.28;;
36797;SDS011;22748;8.426;99.512;2022-12-18T03:44:14;11.65;;;4.47;;
36797;SDS011;22748;8.426;99.512;2022-12-18T03:46:54;8.90;;;4.00;;
36797;SDS011;22748;8.426;99.512;2022-12-18T03:49:31;10.68;;;4.18;;
36797;SDS011;22748;8.426;99.512;2022-12-18T03:52:06;9.82;;;3.75;;
36797;SDS011;22748;8.426;99.512;2022-12-18T03:54:39;9.15;;;3.50;;
36797;SDS011;22748;8.426;99.512;2022-12-18T03:57:13;6.63;;;3.47;;
36797;SDS011;22748;8.426;99.512;2022-12-18T03:59:49;6.72;;;3.13;;
36797;SDS011;22748;8.426;99.512;2022-12-18T04:02:23;6.82;;;3.50;;
36797;SDS011;22748;8.426;99.512;2022-12-18T04:04:56;7.18;;;3.72;;
36797;SDS011;22748;8.426;99.512;2022-12-18T04:07:29;8.77;;;3.00;;
36797;SDS011;22748;8.426;99.512;2022-12-18T04:10:02;7.47;;;3.45;;
36797;SDS011;22748;8.426;99.512;2022-12-18T04:12:39;6.18;;;3.33;;
36797;SDS011;22748;8.426;99.512;2022-12-18T04:15:12;7.00;;;3.45;;
36797;SDS011;22748;8.426;99.512;2022-12-18T04:20:14;8.82;;;3.65;;
36797;SDS011;22748;8.426;99.512;2022-12-18T04:22:47;7.13;;;4.07;;
36797;SDS011;22748;8.426;99.512;2022-12-18T04:25:17;8.38;;;3.50;;
36797;SDS011;22748;8.426;99.512;2022-12-18T04:27:46;8.35;;;3.65;;
36797;SDS011;22748;8.426;99.512;2022-12-18T04:30:20;7.65;;;3.10;;
36797;SDS011;22748;8.426;99.512;2022-12-18T04:32:49;6.95;;;3.10;;
36797;SDS011;22748;8.426;99.512;2022-12-18T04:35:19;7.50;;;3.15;;
36797;SDS011;22748;8.426;99.512;2022-12-18T04:37:48;9.65;;;3.03;;
36797;SDS011;22748;8.426;99.512;2022-12-18T04:40:19;8.38;;;3.50;;
36797;SDS011;22748;8.426;99.512;2022-12-18T04:42:55;3.55;;;2.22;;
36797;SDS011;22748;8.426;99.512;2022-12-18T04:45:33;10.13;;;2.67;;
36797;SDS011;22748;8.426;99.512;2022-12-18T04:48:03;6.43;;;2.05;;
36797;SDS011;22748;8.426;99.512;2022-12-18T04:50:32;7.53;;;2.03;;
36797;SDS011;22748;8.426;99.512;2022-12-18T04:53:02;4.90;;;2.30;;
36797;SDS011;22748;8.426;99.512;2022-12-18T04:55:32;5.53;;;2.25;;
36797;SDS011;22748;8.426;99.512;2022-12-18T04:58:01;6.47;;;1.98;;
36797;SDS011;22748;8.426;99.512;2022-12-18T05:00:30;5.85;;;1.90;;
36797;SDS011;22748;8.426;99.512;2022-12-18T05:03:03;4.25;;;1.95;;
36797;SDS011;22748;8.426;99.512;2022-12-18T05:08:04;5.78;;;2.50;;
36797;SDS011;22748;8.426;99.512;2022-12-18T05:10:34;5.22;;;2.10;;
36797;SDS011;22748;8.426;99.512;2022-12-18T05:13:04;6.20;;;1.85;;
36797;SDS011;22748;8.426;99.512;2022-12-18T05:15:36;4.65;;;2.33;;
36797;SDS011;22748;8.426;99.512;2022-12-18T05:18:08;3.70;;;2.17;;
36797;SDS011;22748;8.426;99.512;2022-12-18T05:20:38;5.75;;;2.00;;
36797;SDS011;22748;8.426;99.512;2022-12-18T05:23:09;3.83;;;2.07;;
36797;SDS011;22748;8.426;99.512;2022-12-18T05:25:38;6.07;;;2.03;;
36797;SDS011;22748;8.426;99.512;2022-12-18T05:28:09;7.68;;;2.00;;
36797;SDS011;22748;8.426;99.512;2022-12-18T05:30:46;6.05;;;2.20;;
36797;SDS011;22748;8.426;99.512;2022-12-18T05:33:19;7.63;;;2.20;;
36797;SDS011;22748;8.426;99.512;2022-12-18T05:35:51;6.00;;;2.47;;
36797;SDS011;22748;8.426;99.512;2022-12-18T05:38:22;4.05;;;2.20;;
36797;SDS011;22748;8.426;99.512;2022-12-18T05:40:53;3.60;;;2.20;;
36797;SDS011;22748;8.426;99.512;2022-12-18T05:43:23;4.68;;;2.58;;
36797;SDS011;22748;8.426;99.512;2022-12-18T05:45:56;4.10;;;1.70;;
36797;SDS011;22748;8.426;99.512;2022-12-18T05:48:31;4.57;;;2.08;;
36797;SDS011;22748;8.426;99.512;2022-12-18T05:51:06;5.85;;;2.08;;
36797;SDS011;22748;8.426;99.512;2022-12-18T05:53:37;4.18;;;1.70;;
36797;SDS011;22748;8.426;99.512;2022-12-18T05:56:08;4.47;;;2.08;;
36797;SDS011;22748;8.426;99.512;2022-12-18T05:58:40;4.13;;;1.70;;
36797;SDS011;22748;8.426;99.512;2022-12-18T06:01:15;5.28;;;1.80;;
36797;SDS011;22748;8.426;99.512;2022-12-18T06:03:48;3.75;;;1.50;;
36797;SDS011;22748;8.426;99.512;2022-12-18T06:06:21;2.90;;;1.55;;
36797;SDS011;22748;8.426;99.512;2022-12-18T06:08:51;2.90;;;1.73;;
36797;SDS011;22748;8.426;99.512;2022-12-18T06:11:23;3.72;;;1.52;;
36797;SDS011;22748;8.426;99.512;2022-12-18T06:13:54;5.43;;;1.98;;
36797;SDS011;22748;8.426;99.512;2022-12-18T06:16:26;3.40;;;1.58;;
36797;SDS011;22748;8.426;99.512;2022-12-18T06:18:59;3.75;;;1.73;;
36797;SDS011;22748;8.426;99.512;2022-12-18T06:21:32;4.80;;;2.00;;
36797;SDS011;22748;8.426;99.512;2022-12-18T06:24:03;5.50;;;2.05;;
36797;SDS011;22748;8.426;99.512;2022-12-18T06:26:34;4.85;;;2.08;;
36797;SDS011;22748;8.426;99.512;2022-12-18T06:29:08;5.30;;;2.13;;
36797;SDS011;22748;8.426;99.512;2022-12-18T06:34:08;5.18;;;1.90;;
36797;SDS011;22748;8.426;99.512;2022-12-18T06:36:38;6.63;;;1.95;;
36797;SDS011;22748;8.426;99.512;2022-12-18T06:39:10;4.88;;;2.17;;
36797;SDS011;22748;8.426;99.512;2022-12-18T06:41:41;5.13;;;2.22;;
36797;SDS011;22748;8.426;99.512;2022-12-18T06:44:12;7.55;;;2.00;;
36797;SDS011;22748;8.426;99.512;2022-12-18T06:46:45;6.70;;;2.05;;
36797;SDS011;22748;8.426;99.512;2022-12-18T06:49:18;7.25;;;2.10;;
36797;SDS011;22748;8.426;99.512;2022-12-18T06:51:48;4.40;;;2.20;;
36797;SDS011;22748;8.426;99.512;2022-12-18T06:54:18;7.22;;;2.40;;
36797;SDS011;22748;8.426;99.512;2022-12-18T06:56:58;6.15;;;1.92;;
36797;SDS011;22748;8.426;99.512;2022-12-18T06:59:37;11.07;;;2.22;;
36797;SDS011;22748;8.426;99.512;2022-12-18T07:02:14;8.48;;;1.80;;
36797;SDS011;22748;8.426;99.512;2022-12-18T07:04:45;6.05;;;1.98;;
36797;SDS011;22748;8.426;99.512;2022-12-18T07:07:20;6.80;;;1.92;;
36797;SDS011;22748;8.426;99.512;2022-12-18T07:09:51;6.50;;;1.85;;
36797;SDS011;22748;8.426;99.512;2022-12-18T07:12:22;9.30;;;2.10;;
36797;SDS011;22748;8.426;99.512;2022-12-18T07:14:52;9.45;;;2.45;;
36797;SDS011;22748;8.426;99.512;2022-12-18T07:17:24;7.75;;;2.63;;
36797;SDS011;22748;8.426;99.512;2022-12-18T07:19:56;5.22;;;2.03;;
36797;SDS011;22748;8.426;99.512;2022-12-18T07:22:32;6.22;;;2.72;;
36797;SDS011;22748;8.426;99.512;2022-12-18T07:25:03;6.40;;;2.20;;
36797;SDS011;22748;8.426;99.512;2022-12-18T07:27:43;6.90;;;2.60;;
36797;SDS011;22748;8.426;99.512;2022-12-18T07:30:23;6.38;;;2.20;;
36797;SDS011;22748;8.426;99.512;2022-12-18T07:32:55;6.40;;;2.33;;
36797;SDS011;22748;8.426;99.512;2022-12-18T07:35:33;4.35;;;2.10;;
36797;SDS011;22748;8.426;99.512;2022-12-18T07:38:17;6.63;;;1.98;;
36797;SDS011;22748;8.426;99.512;2022-12-18T07:40:46;7.18;;;2.15;;
36797;SDS011;22748;8.426;99.512;2022-12-18T07:43:17;4.53;;;2.05;;
36797;SDS011;22748;8.426;99.512;2022-12-18T07:45:50;5.43;;;1.80;;
36797;SDS011;22748;8.426;99.512;2022-12-18T07:48:22;6.05;;;1.73;;
36797;SDS011;22748;8.426;99.512;2022-12-18T07:50:55;4.65;;;1.95;;
36797;SDS011;22748;8.426;99.512;2022-12-18T07:53:27;7.15;;;1.73;;
36797;SDS011;22748;8.426;99.512;2022-12-18T07:55:57;4.63;;;1.70;;
36797;SDS011;22748;8.426;99.512;2022-12-18T07:58:28;4.95;;;1.90;;
36797;SDS011;22748;8.426;99.512;2022-12-18T08:01:02;4.80;;;1.90;;
36797;SDS011;22748;8.426;99.512;2022-12-18T08:03:35;3.28;;;1.48;;
36797;SDS011;22748;8.426;99.512;2022-12-18T08:06:09;4.28;;;1.80;;
36797;SDS011;22748;8.426;99.512;2022-12-18T08:08:40;6.07;;;1.67;;
36797;SDS011;22748;8.426;99.512;2022-12-18T08:11:10;6.47;;;1.63;;
36797;SDS011;22748;8.426;99.512;2022-12-18T08:13:46;5.22;;;2.20;;
36797;SDS011;22748;8.426;99.512;2022-12-18T08:16:17;4.25;;;1.95;;
36797;SDS011;22748;8.426;99.512;2022-12-18T08:18:51;6.47;;;2.20;;
36797;SDS011;22748;8.426;99.512;2022-12-18T08:21:22;9.20;;;3.33;;
36797;SDS011;22748;8.426;99.512;2022-12-18T08:23:57;9.63;;;2.75;;
36797;SDS011;22748;8.426;99.512;2022-12-18T08:26:29;7.38;;;2.58;;
36797;SDS011;22748;8.426;99.512;2022-12-18T08:29:04;6.10;;;2.70;;
36797;SDS011;22748;8.426;99.512;2022-12-18T08:31:35;9.25;;;2.95;;
36797;SDS011;22748;8.426;99.512;2022-12-18T08:34:07;7.43;;;3.00;;
36797;SDS011;22748;8.426;99.512;2022-12-18T08:36:41;8.40;;;2.97;;
36797;SDS011;22748;8.426;99.512;2022-12-18T08:39:12;6.95;;;2.88;;
36797;SDS011;22748;8.426;99.512;2022-12-18T08:41:45;7.93;;;3.10;;
36797;SDS011;22748;8.426;99.512;2022-12-18T08:44:30;6.50;;;3.53;;
36797;SDS011;22748;8.426;99.512;2022-12-18T08:47:08;6.63;;;4.57;;
36797;SDS011;22748;8.426;99.512;2022-12-18T08:49:39;9.80;;;5.05;;
36797;SDS011;22748;8.426;99.512;2022-12-18T08:52:11;9.90;;;5.35;;
36797;SDS011;22748;8.426;99.512;2022-12-18T08:54:44;10.90;;;5.82;;
36797;SDS011;22748;8.426;99.512;2022-12-18T08:57:15;8.73;;;5.00;;
36797;SDS011;22748;8.426;99.512;2022-12-18T08:59:45;7.13;;;3.38;;
36797;SDS011;22748;8.426;99.512;2022-12-18T09:02:16;6.28;;;3.45;;
36797;SDS011;22748;8.426;99.512;2022-12-18T09:04:48;10.05;;;4.35;;
36797;SDS011;22748;8.426;99.512;2022-12-18T09:07:18;9.80;;;3.70;;
36797;SDS011;22748;8.426;99.512;2022-12-18T09:09:48;7.53;;;3.83;;
36797;SDS011;22748;8.426;99.512;2022-12-18T09:12:18;10.25;;;3.42;;
36797;SDS011;22748;8.426;99.512;2022-12-18T09:14:49;11.27;;;3.40;;
36797;SDS011;22748;8.426;99.512;2022-12-18T09:17:20;10.50;;;4.50;;
36797;SDS011;22748;8.426;99.512;2022-12-18T09:19:53;7.07;;;3.47;;
36797;SDS011;22748;8.426;99.512;2022-12-18T09:22:22;6.63;;;3.47;;
36797;SDS011;22748;8.426;99.512;2022-12-18T09:24:52;12.25;;;3.63;;
36797;SDS011;22748;8.426;99.512;2022-12-18T09:27:23;8.63;;;3.25;;
36797;SDS011;22748;8.426;99.512;2022-12-18T09:32:23;10.98;;;3.40;;
36797;SDS011;22748;8.426;99.512;2022-12-18T09:34:55;7.07;;;2.92;;
36797;SDS011;22748;8.426;99.512;2022-12-18T09:37:25;7.63;;;3.45;;
36797;SDS011;22748;8.426;99.512;2022-12-18T09:39:56;7.15;;;3.10;;
36797;SDS011;22748;8.426;99.512;2022-12-18T09:42:26;8.48;;;3.15;;
36797;SDS011;22748;8.426;99.512;2022-12-18T09:44:57;8.43;;;3.17;;
36797;SDS011;22748;8.426;99.512;2022-12-18T09:47:30;8.25;;;3.03;;
36797;SDS011;22748;8.426;99.512;2022-12-18T09:50:13;8.63;;;3.17;;
36797;SDS011;22748;8.426;99.512;2022-12-18T09:52:52;8.63;;;3.67;;
36797;SDS011;22748;8.426;99.512;2022-12-18T09:55:27;9.23;;;4.10;;
36797;SDS011;22748;8.426;99.512;2022-12-18T09:58:02;11.60;;;5.93;;
36797;SDS011;22748;8.426;99.512;2022-12-18T10:00:39;12.63;;;5.95;;
36797;SDS011;22748;8.426;99.512;2022-12-18T10:03:11;8.85;;;4.82;;
36797;SDS011;22748;8.426;99.512;2022-12-18T10:05:46;7.50;;;4.38;;
36797;SDS011;22748;8.426;99.512;2022-12-18T10:08:28;10.90;;;4.47;;
36797;SDS011;22748;8.426;99.512;2022-12-18T10:11:21;8.30;;;4.10;;
36797;SDS011;22748;8.426;99.512;2022-12-18T10:14:02;7.90;;;4.00;;
36797;SDS011;22748;8.426;99.512;2022-12-18T10:16:41;6.22;;;4.10;;
36797;SDS011;22748;8.426;99.512;2022-12-18T10:19:23;8.55;;;3.90;;
36797;SDS011;22748;8.426;99.512;2022-12-18T10:22:12;25.15;;;6.88;;
36797;SDS011;22748;8.426;99.512;2022-12-18T10:24:53;12.77;;;6.18;;
36797;SDS011;22748;8.426;99.512;2022-12-18T10:27:31;35.35;;;18.35;;
36797;SDS011;22748;8.426;99.512;2022-12-18T10:30:04;145.77;;;104.72;;
36797;SDS011;22748;8.426;99.512;2022-12-18T10:32:42;148.20;;;98.75;;
36797;SDS011;22748;8.426;99.512;2022-12-18T10:35:14;103.95;;;66.55;;
36797;SDS011;22748;8.426;99.512;2022-12-18T10:40:47;46.90;;;30.60;;
36797;SDS011;22748;8.426;99.512;2022-12-18T10:43:20;37.30;;;22.73;;
36797;SDS011;22748;8.426;99.512;2022-12-18T10:45:59;26.60;;;13.18;;
36797;SDS011;22748;8.426;99.512;2022-12-18T10:48:33;18.45;;;10.30;;
36797;SDS011;22748;8.426;99.512;2022-12-18T10:51:08;16.27;;;10.10;;
36797;SDS011;22748;8.426;99.512;2022-12-18T10:53:56;11.57;;;6.40;;
36797;SDS011;22748;8.426;99.512;2022-12-18T10:56:33;10.70;;;5.38;;
36797;SDS011;22748;8.426;99.512;2022-12-18T10:59:05;13.45;;;5.18;;
36797;SDS011;22748;8.426;99.512;2022-12-18T11:01:45;12.77;;;5.63;;
36797;SDS011;22748;8.426;99.512;2022-12-18T11:04:18;17.42;;;6.05;;
36797;SDS011;22748;8.426;99.512;2022-12-18T11:06:54;69.00;;;18.08;;
36797;SDS011;22748;8.426;99.512;2022-12-18T11:09:30;42.70;;;11.32;;
36797;SDS011;22748;8.426;99.512;2022-12-18T11:12:02;32.05;;;10.50;;
36797;SDS011;22748;8.426;99.512;2022-12-18T11:14:42;22.60;;;7.97;;
36797;SDS011;22748;8.426;99.512;2022-12-18T11:17:19;16.35;;;6.93;;
36797;SDS011;22748;8.426;99.512;2022-12-18T11:19:55;18.60;;;7.30;;
36797;SDS011;22748;8.426;99.512;2022-12-18T11:22:26;16.80;;;6.05;;
36797;SDS011;22748;8.426;99.512;2022-12-18T11:25:00;15.15;;;6.40;;
36797;SDS011;22748;8.426;99.512;2022-12-18T11:27:33;14.50;;;5.53;;
36797;SDS011;22748;8.426;99.512;2022-12-18T11:30:08;13.57;;;5.30;;
36797;SDS011;22748;8.426;99.512;2022-12-18T11:32:48;10.40;;;4.47;;
36797;SDS011;22748;8.426;99.512;2022-12-18T11:35:23;12.98;;;4.85;;
36797;SDS011;22748;8.426;99.512;2022-12-18T11:38:04;13.07;;;4.68;;
36797;SDS011;22748;8.426;99.512;2022-12-18T11:40:53;12.35;;;5.40;;
36797;SDS011;22748;8.426;99.512;2022-12-18T11:43:27;9.02;;;4.47;;
36797;SDS011;22748;8.426;99.512;2022-12-18T11:46:04;9.52;;;5.03;;
36797;SDS011;22748;8.426;99.512;2022-12-18T11:48:42;11.30;;;4.20;;
36797;SDS011;22748;8.426;99.512;2022-12-18T11:51:17;11.15;;;4.75;;
36797;SDS011;22748;8.426;99.512;2022-12-18T11:54:06;13.25;;;4.63;;
36797;SDS011;22748;8.426;99.512;2022-12-18T11:56:49;10.98;;;4.53;;
36797;SDS011;22748;8.426;99.512;2022-12-18T11:59:27;9.05;;;4.85;;
36797;SDS011;22748;8.426;99.512;2022-12-18T12:02:11;12.80;;;4.88;;
36797;SDS011;22748;8.426;99.512;2022-12-18T12:05:03;8.07;;;4.80;;
36797;SDS011;22748;8.426;99.512;2022-12-18T12:07:50;7.57;;;4.40;;
36797;SDS011;22748;8.426;99.512;2022-12-18T12:10:40;10.32;;;4.53;;
36797;SDS011;22748;8.426;99.512;2022-12-18T12:13:26;8.02;;;4.45;;
36797;SDS011;22748;8.426;99.512;2022-12-18T12:16:11;11.57;;;4.70;;
36797;SDS011;22748;8.426;99.512;2022-12-18T12:18:48;9.88;;;5.20;;
36797;SDS011;22748;8.426;99.512;2022-12-18T12:21:33;8.68;;;4.90;;
36797;SDS011;22748;8.426;99.512;2022-12-18T12:24:12;12.05;;;6.05;;
36797;SDS011;22748;8.426;99.512;2022-12-18T12:27:00;13.13;;;5.38;;
36797;SDS011;22748;8.426;99.512;2022-12-18T12:29:44;10.02;;;4.85;;
36797;SDS011;22748;8.426;99.512;2022-12-18T12:32:27;8.52;;;4.55;;
36797;SDS011;22748;8.426;99.512;2022-12-18T12:35:15;10.85;;;7.32;;
36797;SDS011;22748;8.426;99.512;2022-12-18T12:38:06;14.13;;;6.78;;
36797;SDS011;22748;8.426;99.512;2022-12-18T12:40:56;10.52;;;6.13;;
36797;SDS011;22748;8.426;99.512;2022-12-18T12:47:20;11.55;;;6.32;;
36797;SDS011;22748;8.426;99.512;2022-12-18T12:50:03;11.43;;;5.65;;
36797;SDS011;22748;8.426;99.512;2022-12-18T12:52:49;10.77;;;5.80;;
36797;SDS011;22748;8.426;99.512;2022-12-18T12:55:34;10.60;;;5.70;;
36797;SDS011;22748;8.426;99.512;2022-12-18T12:58:19;9.20;;;5.70;;
36797;SDS011;22748;8.426;99.512;2022-12-18T13:01:09;12.32;;;5.65;;
36797;SDS011;22748;8.426;99.512;2022-12-18T13:04:03;9.30;;;5.90;;
36797;SDS011;22748;8.426;99.512;2022-12-18T13:06:53;9.63;;;5.70;;
36797;SDS011;22748;8.426;99.512;2022-12-18T13:10:11;8.73;;;4.97;;
36797;SDS011;22748;8.426;99.512;2022-12-18T13:12:58;12.50;;;5.97;;
36797;SDS011;22748;8.426;99.512;2022-12-18T13:15:41;8.57;;;5.75;;
36797;SDS011;22748;8.426;99.512;2022-12-18T13:18:23;11.45;;;5.80;;
36797;SDS011;22748;8.426;99.512;2022-12-18T13:21:11;10.50;;;5.78;;
36797;SDS011;22748;8.426;99.512;2022-12-18T13:24:10;11.88;;;5.72;;
36797;SDS011;22748;8.426;99.512;2022-12-18T13:43:46;8.82;;;5.18;;
36797;SDS011;22748;8.426;99.512;2022-12-18T13:46:27;10.32;;;5.03;;
36797;SDS011;22748;8.426;99.512;2022-12-18T13:49:21;15.52;;;5.55;;
36797;SDS011;22748;8.426;99.512;2022-12-18T13:52:15;15.48;;;6.15;;
36797;SDS011;22748;8.426;99.512;2022-12-18T13:54:56;13.45;;;5.63;;
36797;SDS011;22748;8.426;99.512;2022-12-18T13:57:37;11.80;;;5.97;;
36797;SDS011;22748;8.426;99.512;2022-12-18T14:03:19;8.57;;;4.57;;
36797;SDS011;22748;8.426;99.512;2022-12-18T14:06:04;7.28;;;3.70;;
36797;SDS011;22748;8.426;99.512;2022-12-18T14:08:53;8.00;;;3.70;;
36797;SDS011;22748;8.426;99.512;2022-12-18T14:11:36;5.80;;;3.78;;
36797;SDS011;22748;8.426;99.512;2022-12-18T14:14:44;8.65;;;3.38;;
36797;SDS011;22748;8.426;99.512;2022-12-18T14:17:30;5.60;;;3.97;;
36797;SDS011;22748;8.426;99.512;2022-12-18T14:20:14;4.75;;;3.00;;
36797;SDS011;22748;8.426;99.512;2022-12-18T14:22:58;7.20;;;2.88;;
36797;SDS011;22748;8.426;99.512;2022-12-18T14:32:09;6.10;;;3.08;;
36797;SDS011;22748;8.426;99.512;2022-12-18T14:34:58;5.88;;;3.13;;
36797;SDS011;22748;8.426;99.512;2022-12-18T14:37:56;7.93;;;3.10;;
36797;SDS011;22748;8.426;99.512;2022-12-18T14:40:54;4.85;;;3.28;;
36797;SDS011;22748;8.426;99.512;2022-12-18T14:43:36;7.18;;;3.67;;
36797;SDS011;22748;8.426;99.512;2022-12-18T14:46:28;5.95;;;3.30;;
36797;SDS011;22748;8.426;99.512;2022-12-18T14:49:04;6.83;;;3.43;;
36797;SDS011;22748;8.426;99.512;2022-12-18T14:51:52;9.45;;;3.33;;
36797;SDS011;22748;8.426;99.512;2022-12-18T14:54:32;4.22;;;3.40;;
36797;SDS011;22748;8.426;99.512;2022-12-18T14:57:18;5.10;;;2.97;;
36797;SDS011;22748;8.426;99.512;2022-12-18T14:59:52;7.22;;;3.60;;
36797;SDS011;22748;8.426;99.512;2022-12-18T15:02:34;6.97;;;3.95;;
36797;SDS011;22748;8.426;99.512;2022-12-18T15:05:14;6.70;;;4.00;;
36797;SDS011;22748;8.426;99.512;2022-12-18T15:07:51;4.50;;;3.50;;
36797;SDS011;22748;8.426;99.512;2022-12-18T15:10:23;5.88;;;3.40;;
36797;SDS011;22748;8.426;99.512;2022-12-18T15:13:06;5.15;;;3.63;;
36797;SDS011;22748;8.426;99.512;2022-12-18T15:15:47;6.82;;;3.45;;
36797;SDS011;22748;8.426;99.512;2022-12-18T15:18:19;4.55;;;3.25;;
36797;SDS011;22748;8.426;99.512;2022-12-18T15:20:53;6.32;;;3.72;;
36797;SDS011;22748;8.426;99.512;2022-12-18T15:23:29;6.72;;;3.85;;
36797;SDS011;22748;8.426;99.512;2022-12-18T15:26:04;5.53;;;3.47;;
36797;SDS011;22748;8.426;99.512;2022-12-18T15:28:36;6.05;;;3.67;;
36797;SDS011;22748;8.426;99.512;2022-12-18T15:34:08;5.63;;;4.10;;
36797;SDS011;22748;8.426;99.512;2022-12-18T15:36:43;6.20;;;4.00;;
36797;SDS011;22748;8.426;99.512;2022-12-18T15:39:16;7.13;;;4.30;;
36797;SDS011;22748;8.426;99.512;2022-12-18T15:41:46;7.55;;;4.10;;
36797;SDS011;22748;8.426;99.512;2022-12-18T15:44:30;9.07;;;4.15;;
36797;SDS011;22748;8.426;99.512;2022-12-18T15:47:01;4.85;;;3.83;;
36797;SDS011;22748;8.426;99.512;2022-12-18T15:49:31;5.60;;;4.13;;
36797;SDS011;22748;8.426;99.512;2022-12-18T15:52:01;7.70;;;4.05;;
36797;SDS011;22748;8.426;99.512;2022-12-18T15:54:34;6.75;;;3.95;;
36797;SDS011;22748;8.426;99.512;2022-12-18T15:57:18;6.40;;;3.78;;
36797;SDS011;22748;8.426;99.512;2022-12-18T15:59:51;5.00;;;3.63;;
36797;SDS011;22748;8.426;99.512;2022-12-18T16:02:25;6.18;;;4.00;;
36797;SDS011;22748;8.426;99.512;2022-12-18T16:04:56;6.22;;;4.25;;
36797;SDS011;22748;8.426;99.512;2022-12-18T16:07:27;5.78;;;3.67;;
36797;SDS011;22748;8.426;99.512;2022-12-18T16:09:58;7.40;;;4.05;;
36797;SDS011;22748;8.426;99.512;2022-12-18T16:14:59;5.60;;;3.85;;
36797;SDS011;22748;8.426;99.512;2022-12-18T16:17:30;5.88;;;3.75;;
36797;SDS011;22748;8.426;99.512;2022-12-18T16:20:01;4.70;;;3.97;;
36797;SDS011;22748;8.426;99.512;2022-12-18T16:22:31;7.47;;;4.22;;
36797;SDS011;22748;8.426;99.512;2022-12-18T16:25:03;8.45;;;4.22;;
36797;SDS011;22748;8.426;99.512;2022-12-18T16:27:34;6.75;;;4.10;;
36797;SDS011;22748;8.426;99.512;2022-12-18T16:30:05;7.20;;;3.78;;